createdAt,value
2019-05-11T00:03:09.277Z,99946.26
2019-05-11T00:08:15.259Z,100016.59
2019-05-11T00:13:21.016Z,100082.52
2019-05-11T00:18:26.876Z,100121.07
2019-05-11T00:23:32.641Z,100175.41
2019-05-11T00:28:38.560Z,100261.99
2019-05-11T00:33:44.271Z,100343.91
2019-05-11T00:38:51.023Z,100436.64
2019-05-11T00:43:56.927Z,100516.08
2019-05-11T00:49:02.846Z,100568.23
2019-05-11T00:54:08.802Z,100591.97
2019-05-11T00:59:21.646Z,100624.83
2019-05-11T01:04:22.224Z,100660.39
2019-05-11T01:09:27.961Z,100680.92
2019-05-11T01:14:33.884Z,100699.65
2019-05-11T01:19:39.806Z,100709.78
2019-05-11T01:24:45.736Z,100723.24
2019-05-11T01:29:51.655Z,100683.95
2019-05-11T01:34:57.545Z,100683.95
2019-05-11T01:40:03.690Z,100648.38
2019-05-11T01:45:09.905Z,100608.36
2019-05-11T01:50:15.791Z,100551.23
2019-05-11T01:55:20.927Z,100533.03
2019-05-11T02:00:26.881Z,100533.03
2019-05-11T02:05:32.735Z,100510.35
2019-05-11T02:10:38.583Z,100530.97
2019-05-11T02:15:44.370Z,100526.55
2019-05-11T02:20:50.693Z,100461.42
2019-05-11T02:25:56.550Z,100430.38
2019-05-11T02:31:03.745Z,100376.14
2019-05-11T02:36:09.628Z,100376.14
2019-05-11T02:41:33.301Z,100283.34
2019-05-11T02:46:22.891Z,100200.83
2019-05-11T02:51:30.682Z,100119.81
2019-05-11T02:56:36.487Z,100040.30
2019-05-11T03:01:42.352Z,99926.97
2019-05-11T03:06:48.193Z,99926.97
2019-05-11T03:11:56.279Z,99842.14
2019-05-11T03:17:21.252Z,99842.14
2019-05-11T03:22:26.981Z,99770.19
2019-05-11T03:27:32.794Z,99758.22
2019-05-11T03:32:38.683Z,99758.22
2019-05-11T03:37:44.448Z,99751.61
2019-05-11T03:42:51.015Z,99714.96
2019-05-11T03:47:56.783Z,99714.96
2019-05-11T03:53:02.720Z,99681.16
2019-05-11T03:58:08.528Z,99608.69
2019-05-11T04:03:14.706Z,99545.35
2019-05-11T04:08:20.579Z,99471.30
2019-05-11T04:13:26.449Z,99351.58
2019-05-11T04:18:32.173Z,99268.06
2019-05-11T04:23:37.883Z,99177.59
2019-05-11T04:28:43.769Z,99113.98
2019-05-11T04:33:50.504Z,98935.31
2019-05-11T04:38:56.204Z,98714.91
2019-05-11T04:44:02.044Z,98485.82
2019-05-11T04:49:07.962Z,98241.43
2019-05-11T04:54:13.976Z,98061.50
2019-05-11T04:59:19.702Z,97979.23
2019-05-11T05:04:25.580Z,97957.87
2019-05-11T05:09:36.077Z,97961.50
2019-05-11T05:14:38.951Z,97861.36
2019-05-11T05:19:45.221Z,97769.53
2019-05-11T05:24:51.055Z,97658.20
2019-05-11T05:29:58.248Z,97593.64
2019-05-11T05:35:04.528Z,97621.52
2019-05-11T05:40:10.560Z,97621.27
2019-05-11T05:45:16.377Z,97711.58
2019-05-11T05:50:22.309Z,97681.13
2019-05-11T05:55:28.124Z,97641.69
2019-05-11T06:00:35.217Z,97636.08
2019-05-11T06:05:40.976Z,97491.78
2019-05-11T06:10:46.815Z,97523.72
2019-05-11T06:15:52.579Z,97433.28
2019-05-11T06:20:58.554Z,97536.23
2019-05-11T06:26:04.539Z,97570.77
2019-05-11T06:31:10.609Z,97463.20
2019-05-11T06:36:16.515Z,97480.73
2019-05-11T06:41:22.453Z,97441.63
2019-05-11T06:46:28.528Z,97273.89
2019-05-11T06:51:34.294Z,97233.47
2019-05-11T06:56:40.161Z,97236.13
2019-05-11T07:01:45.944Z,97204.92
2019-05-11T07:06:51.516Z,97252.22
2019-05-11T07:11:57.393Z,97255.96
2019-05-11T07:17:03.231Z,97229.20
2019-05-11T07:22:09.240Z,97391.47
2019-05-11T07:27:15.030Z,97438.70
2019-05-11T07:32:25.758Z,97490.00
2019-05-11T07:37:28.472Z,97535.09
2019-05-11T07:42:34.281Z,97502.17
2019-05-11T07:47:40.504Z,97553.27
2019-05-11T07:52:48.304Z,97648.78
2019-05-11T07:57:53.999Z,97530.78
2019-05-11T08:02:59.869Z,97673.88
2019-05-11T08:08:05.846Z,97901.79
2019-05-11T08:13:11.715Z,97831.99
2019-05-11T08:18:18.923Z,97813.64
2019-05-11T08:23:25.098Z,97928.00
2019-05-11T08:28:30.869Z,98159.22
2019-05-11T08:33:38.708Z,98084.14
2019-05-11T08:38:45.481Z,98207.38
2019-05-11T08:43:51.354Z,98268.93
2019-05-11T08:48:59.508Z,98331.08
2019-05-11T08:54:04.975Z,98564.55
2019-05-11T08:59:11.221Z,98531.76
2019-05-11T09:04:18.254Z,98471.37
2019-05-11T09:09:24.385Z,98498.16
2019-05-11T09:14:30.567Z,98606.99
2019-05-11T09:19:38.628Z,98556.81
2019-05-11T09:24:43.858Z,98612.63
2019-05-11T09:29:49.740Z,98607.52
2019-05-11T09:34:57.798Z,98667.97
2019-05-11T09:40:03.406Z,98685.61
2019-05-11T09:45:10.395Z,98567.78
2019-05-11T09:50:17.853Z,98585.22
2019-05-11T09:55:23.992Z,98591.17
2019-05-11T10:00:31.504Z,98546.73
2019-05-11T10:05:38.310Z,98527.86
2019-05-11T10:10:45.058Z,98545.34
2019-05-11T10:16:03.434Z,98732.72
2019-05-11T10:20:58.777Z,98675.75
2019-05-11T10:26:04.686Z,98536.30
2019-05-11T10:31:10.515Z,99388.59
2019-05-11T10:36:18.749Z,100231.02
2019-05-11T10:41:23.994Z,100317.19
2019-05-11T10:46:29.903Z,100530.27
2019-05-11T10:51:38.091Z,100506.45
2019-05-11T10:56:43.347Z,100528.55
2019-05-11T11:01:49.259Z,100574.00
2019-05-11T11:06:58.951Z,100630.84
2019-05-11T11:12:04.994Z,100654.13
2019-05-11T11:17:11.026Z,100696.99
2019-05-11T11:22:36.233Z,100710.98
2019-05-11T11:27:24.460Z,100730.42
2019-05-11T11:32:30.095Z,100751.14
2019-05-11T11:37:35.890Z,100738.20
2019-05-11T11:42:43.371Z,100741.06
2019-05-11T11:47:50.103Z,100784.52
2019-05-11T11:52:57.722Z,100779.41
2019-05-11T11:58:03.338Z,100781.61
2019-05-11T12:03:09.269Z,100799.16
2019-05-11T12:08:15.583Z,100802.41
2019-05-11T12:13:21.363Z,100804.12
2019-05-11T12:18:28.701Z,100791.78
2019-05-11T12:23:34.740Z,100796.52
2019-05-11T12:28:40.612Z,100792.41
2019-05-11T12:33:48.287Z,100808.57
2019-05-11T12:38:53.994Z,100819.49
2019-05-11T12:43:59.863Z,100835.44
2019-05-11T12:49:07.892Z,100826.84
2019-05-11T12:54:13.136Z,100844.64
2019-05-11T12:59:19.008Z,100841.02
2019-05-11T13:04:24.880Z,100845.20
2019-05-11T13:09:30.773Z,100850.28
2019-05-11T13:14:38.191Z,100843.76
2019-05-11T13:19:44.151Z,100849.84
2019-05-11T13:24:49.905Z,100860.80
2019-05-11T13:29:55.876Z,100874.00
2019-05-11T13:35:01.759Z,100851.63
2019-05-11T13:40:09.477Z,100855.92
2019-05-11T13:45:17.760Z,100871.67
2019-05-11T13:50:23.781Z,100864.92
2019-05-11T13:55:29.837Z,100874.88
2019-05-11T14:00:37.887Z,100883.08
2019-05-11T14:05:43.395Z,100880.45
2019-05-11T14:10:49.192Z,100886.96
2019-05-11T14:15:54.968Z,100884.06
2019-05-11T14:21:00.833Z,100893.31
2019-05-11T14:26:08.609Z,100902.64
2019-05-11T14:31:14.527Z,100915.06
2019-05-11T14:36:20.365Z,100906.75
2019-05-11T14:41:28.394Z,100919.93
2019-05-11T14:46:33.548Z,100917.59
2019-05-11T14:51:39.448Z,100926.20
2019-05-11T14:56:45.214Z,100913.33
2019-05-11T15:01:51.796Z,100912.70
2019-05-11T15:06:57.980Z,100890.57
2019-05-11T15:12:03.991Z,100918.65
2019-05-11T15:17:09.926Z,100930.23
2019-05-11T15:22:18.154Z,100934.67
2019-05-11T15:27:24.020Z,100930.83
2019-05-11T15:32:29.803Z,100935.34
2019-05-11T15:37:35.615Z,100943.09
2019-05-11T15:42:41.428Z,100928.11
2019-05-11T15:47:48.700Z,100937.95
2019-05-11T15:52:54.924Z,100924.63
2019-05-11T15:58:00.860Z,100910.14
2019-05-11T16:03:08.193Z,100887.06
2019-05-11T16:08:14.318Z,100902.27
2019-05-11T16:13:20.045Z,100890.03
2019-05-11T16:18:25.876Z,100654.77
2019-05-11T16:23:32.603Z,100674.59
2019-05-11T16:28:38.564Z,100712.08
2019-05-11T16:33:44.562Z,100733.55
2019-05-11T16:38:50.527Z,100800.60
2019-05-11T16:43:58.563Z,100867.62
2019-05-11T16:49:04.214Z,100862.20
2019-05-11T16:54:10.093Z,100884.02
2019-05-11T16:59:18.016Z,100888.54
2019-05-11T17:04:26.503Z,100898.04
2019-05-11T17:09:30.872Z,100896.34
2019-05-11T17:14:42.284Z,100908.18
2019-05-11T17:19:49.108Z,100889.66
2019-05-11T17:24:55.375Z,100875.16
2019-05-11T17:30:04.474Z,100853.55
2019-05-11T17:35:10.478Z,100850.80
2019-05-11T17:40:20.519Z,100887.36
2019-05-11T17:45:24.023Z,100943.34
2019-05-11T17:50:29.925Z,100923.12
2019-05-11T17:55:38.281Z,100918.10
2019-05-11T18:00:43.409Z,100899.02
2019-05-11T18:05:49.825Z,100887.27
2019-05-11T18:10:55.763Z,100939.86
2019-05-11T18:16:01.550Z,101001.97
2019-05-11T18:21:08.519Z,101083.42
2019-05-11T18:26:14.548Z,101137.19
2019-05-11T18:31:20.351Z,101155.79
2019-05-11T18:36:26.142Z,101168.91
2019-05-11T18:41:32.577Z,101174.35
2019-05-11T18:46:39.774Z,101171.63
2019-05-11T18:51:48.140Z,101165.98
2019-05-11T18:56:53.451Z,101169.95
2019-05-11T19:01:59.319Z,101145.95
2019-05-11T19:07:16.010Z,101134.94
2019-05-11T19:12:12.768Z,101107.72
2019-05-11T19:17:18.694Z,101072.47
2019-05-11T19:22:24.490Z,101057.27
2019-05-11T19:27:31.442Z,101029.87
2019-05-11T19:32:38.289Z,101017.09
2019-05-11T19:37:44.586Z,101002.90
2019-05-11T19:42:59.065Z,100971.81
2019-05-11T19:48:05.343Z,100969.66
2019-05-11T19:53:11.162Z,100948.49
2019-05-11T19:58:19.237Z,100956.13
2019-05-11T20:03:25.411Z,100945.28
2019-05-11T20:08:31.282Z,100910.47
2019-05-11T20:13:38.839Z,100884.80
2019-05-11T20:18:44.773Z,100885.80
2019-05-11T20:23:55.201Z,100851.11
2019-05-11T20:29:03.262Z,100782.09
2019-05-11T20:34:09.034Z,100726.08
2019-05-11T20:39:15.025Z,100708.73
2019-05-11T20:44:20.985Z,100613.04
2019-05-11T20:49:28.251Z,100467.36
2019-05-11T20:54:34.375Z,100189.52
2019-05-11T20:59:40.356Z,99670.94
2019-05-11T21:04:49.008Z,99237.89
2019-05-11T21:09:54.025Z,99195.05
2019-05-11T21:15:00.606Z,99342.12
2019-05-11T21:20:08.122Z,99379.69
2019-05-11T21:25:14.517Z,99380.50
2019-05-11T21:30:20.537Z,99365.31
2019-05-11T21:35:28.266Z,99374.23
2019-05-11T21:40:34.223Z,99385.02
2019-05-11T21:45:40.873Z,99352.06
2019-05-11T21:50:46.732Z,99345.22
2019-05-11T21:55:52.599Z,99385.02
2019-05-11T22:01:00.117Z,99352.18
2019-05-11T22:06:08.568Z,99383.90
2019-05-11T22:11:14.506Z,99387.91
2019-05-11T22:16:20.425Z,99309.72
2019-05-11T22:21:28.037Z,99313.19
2019-05-11T22:26:33.757Z,99318.64
2019-05-11T22:31:42.147Z,99305.30
2019-05-11T22:36:47.960Z,99312.89
2019-05-11T22:41:53.731Z,99325.70
2019-05-11T22:47:00.935Z,99343.36
2019-05-11T22:52:08.584Z,99352.80
2019-05-11T22:57:14.197Z,99382.28
2019-05-11T23:02:20.021Z,99392.36
2019-05-11T23:07:25.869Z,99374.91
2019-05-11T23:12:32.134Z,99361.34
2019-05-11T23:17:39.861Z,99346.39
2019-05-11T23:22:56.826Z,99336.27
2019-05-11T23:27:55.980Z,99326.30
2019-05-11T23:33:03.273Z,99320.67
2019-05-11T23:38:09.274Z,99276.25
2019-05-11T23:43:15.037Z,99289.50
2019-05-11T23:48:20.894Z,99289.66
2019-05-11T23:53:28.211Z,99290.14
2019-05-11T23:58:34.308Z,99302.22
